sensor_id;sensor_type;location;lat;lon;timestamp;pressure;altitude;pressure_sealevel;temperature;humidity
76590;BME280;65471;55.908;37.880;2023-02-26T00:01:01;97529.50;;;1.61;85.57
76590;BME280;65471;55.908;37.880;2023-02-26T00:03:28;97514.38;;;1.61;85.58
76590;BME280;65471;55.908;37.880;2023-02-26T00:05:59;97505.53;;;1.61;85.94
76590;BME280;65471;55.908;37.880;2023-02-26T00:08:27;97497.56;;;1.61;85.68
76590;BME280;65471;55.908;37.880;2023-02-26T00:10:54;97497.91;;;1.64;85.54
76590;BME280;65471;55.908;37.880;2023-02-26T00:13:21;97482.41;;;1.61;85.44
76590;BME280;65471;55.908;37.880;2023-02-26T00:15:50;97485.06;;;1.61;85.80
76590;BME280;65471;55.908;37.880;2023-02-26T00:18:22;97460.88;;;1.63;85.67
76590;BME280;65471;55.908;37.880;2023-02-26T00:20:49;97468.16;;;1.67;85.69
76590;BME280;65471;55.908;37.880;2023-02-26T00:23:16;97441.06;;;1.59;85.35
76590;BME280;65471;55.908;37.880;2023-02-26T00:25:45;97440.00;;;1.71;85.22
76590;BME280;65471;55.908;37.880;2023-02-26T00:28:12;97451.81;;;1.76;85.07
76590;BME280;65471;55.908;37.880;2023-02-26T00:30:39;97435.25;;;1.73;85.41
76590;BME280;65471;55.908;37.880;2023-02-26T00:33:07;97436.75;;;1.69;85.58
76590;BME280;65471;55.908;37.880;2023-02-26T00:35:34;97418.25;;;1.63;85.22
76590;BME280;65471;55.908;37.880;2023-02-26T00:43:08;97404.66;;;1.76;85.37
76590;BME280;65471;55.908;37.880;2023-02-26T00:45:36;97403.28;;;1.73;85.36
76590;BME280;65471;55.908;37.880;2023-02-26T00:51:01;97383.47;;;1.69;84.89
76590;BME280;65471;55.908;37.880;2023-02-26T00:53:36;97377.00;;;1.65;85.45
76590;BME280;65471;55.908;37.880;2023-02-26T00:56:06;97370.53;;;1.61;85.85
76590;BME280;65471;55.908;37.880;2023-02-26T00:58:33;97368.91;;;1.60;85.64
76590;BME280;65471;55.908;37.880;2023-02-26T01:01:00;97362.88;;;1.65;85.77
76590;BME280;65471;55.908;37.880;2023-02-26T01:03:27;97355.69;;;1.65;85.39
76590;BME280;65471;55.908;37.880;2023-02-26T01:05:54;97351.97;;;1.66;84.88
76590;BME280;65471;55.908;37.880;2023-02-26T01:08:36;97323.72;;;1.65;85.34
76590;BME280;65471;55.908;37.880;2023-02-26T01:11:06;97319.94;;;1.61;85.29
76590;BME280;65471;55.908;37.880;2023-02-26T01:13:33;97329.53;;;1.62;85.79
76590;BME280;65471;55.908;37.880;2023-02-26T01:16:07;97316.69;;;1.59;84.89
76590;BME280;65471;55.908;37.880;2023-02-26T01:18:42;97317.72;;;1.58;85.17
76590;BME280;65471;55.908;37.880;2023-02-26T01:21:15;97327.44;;;1.52;85.22
76590;BME280;65471;55.908;37.880;2023-02-26T01:23:46;97325.13;;;1.56;84.87
76590;BME280;65471;55.908;37.880;2023-02-26T01:26:21;97333.69;;;1.58;85.40
76590;BME280;65471;55.908;37.880;2023-02-26T01:28:49;97336.34;;;1.58;84.77
76590;BME280;65471;55.908;37.880;2023-02-26T01:34:34;97333.13;;;1.56;85.10
76590;BME280;65471;55.908;37.880;2023-02-26T01:42:43;97320.31;;;1.41;85.39
76590;BME280;65471;55.908;37.880;2023-02-26T01:45:16;97294.03;;;1.21;85.71
76590;BME280;65471;55.908;37.880;2023-02-26T01:50:21;97315.31;;;1.45;86.11
76590;BME280;65471;55.908;37.880;2023-02-26T01:55:36;97292.50;;;1.49;85.29
76590;BME280;65471;55.908;37.880;2023-02-26T01:58:04;97299.22;;;1.51;85.46
76590;BME280;65471;55.908;37.880;2023-02-26T02:00:31;97297.59;;;1.50;85.72
76590;BME280;65471;55.908;37.880;2023-02-26T02:02:58;97294.13;;;1.50;84.91
76590;BME280;65471;55.908;37.880;2023-02-26T02:05:34;97288.81;;;1.50;84.81
76590;BME280;65471;55.908;37.880;2023-02-26T02:08:04;97286.69;;;1.52;84.86
76590;BME280;65471;55.908;37.880;2023-02-26T02:10:31;97276.53;;;1.49;85.71
76590;BME280;65471;55.908;37.880;2023-02-26T02:13:02;97264.97;;;1.43;85.46
76590;BME280;65471;55.908;37.880;2023-02-26T02:29:30;97246.31;;;1.43;85.36
76590;BME280;65471;55.908;37.880;2023-02-26T02:37:36;97243.31;;;1.40;85.97
76590;BME280;65471;55.908;37.880;2023-02-26T02:40:07;97240.63;;;1.40;85.96
76590;BME280;65471;55.908;37.880;2023-02-26T02:47:59;97238.44;;;1.36;86.13
76590;BME280;65471;55.908;37.880;2023-02-26T02:50:33;97221.72;;;1.24;86.21
76590;BME280;65471;55.908;37.880;2023-02-26T02:53:05;97236.63;;;1.37;85.63
76590;BME280;65471;55.908;37.880;2023-02-26T02:55:37;97229.19;;;1.39;86.49
76590;BME280;65471;55.908;37.880;2023-02-26T03:00:39;97220.16;;;1.40;85.28
76590;BME280;65471;55.908;37.880;2023-02-26T03:05:55;97209.41;;;1.35;86.03
76590;BME280;65471;55.908;37.880;2023-02-26T03:08:27;97215.31;;;1.37;86.03
76590;BME280;65471;55.908;37.880;2023-02-26T03:10:56;97209.84;;;1.44;85.54
76590;BME280;65471;55.908;37.880;2023-02-26T03:13:24;97209.84;;;1.44;85.94
76590;BME280;65471;55.908;37.880;2023-02-26T03:16:12;97198.63;;;1.42;85.70
76590;BME280;65471;55.908;37.880;2023-02-26T03:18:59;97198.03;;;1.40;85.79
76590;BME280;65471;55.908;37.880;2023-02-26T03:24:23;97189.59;;;1.43;85.59
76590;BME280;65471;55.908;37.880;2023-02-26T03:30:13;97187.25;;;1.46;85.69
76590;BME280;65471;55.908;37.880;2023-02-26T03:32:53;97186.00;;;1.49;85.59
76590;BME280;65471;55.908;37.880;2023-02-26T03:35:32;97188.53;;;1.44;85.94
76590;BME280;65471;55.908;37.880;2023-02-26T03:38:02;97185.31;;;1.42;86.26
76590;BME280;65471;55.908;37.880;2023-02-26T03:40:34;97177.22;;;1.36;86.33
76590;BME280;65471;55.908;37.880;2023-02-26T03:46:27;97181.41;;;1.32;85.64
76590;BME280;65471;55.908;37.880;2023-02-26T03:48:57;97184.78;;;1.28;86.61
76590;BME280;65471;55.908;37.880;2023-02-26T03:51:26;97184.53;;;1.29;86.94
76590;BME280;65471;55.908;37.880;2023-02-26T03:54:00;97186.72;;;1.32;86.63
76590;BME280;65471;55.908;37.880;2023-02-26T03:56:40;97178.72;;;1.32;86.47
76590;BME280;65471;55.908;37.880;2023-02-26T03:59:07;97177.47;;;1.35;86.84
76590;BME280;65471;55.908;37.880;2023-02-26T04:01:48;97187.06;;;1.36;86.47
76590;BME280;65471;55.908;37.880;2023-02-26T04:04:33;97184.53;;;1.41;87.11
76590;BME280;65471;55.908;37.880;2023-02-26T04:07:03;97184.72;;;1.40;86.65
76590;BME280;65471;55.908;37.880;2023-02-26T04:09:29;97186.72;;;1.44;86.89
76590;BME280;65471;55.908;37.880;2023-02-26T04:11:57;97159.06;;;1.33;86.42
76590;BME280;65471;55.908;37.880;2023-02-26T04:14:24;97188.06;;;1.47;86.21
76590;BME280;65471;55.908;37.880;2023-02-26T04:16:51;97200.34;;;1.48;86.70
76590;BME280;65471;55.908;37.880;2023-02-26T04:19:18;97198.72;;;1.47;86.78
76590;BME280;65471;55.908;37.880;2023-02-26T04:21:45;97196.41;;;1.50;86.01
76590;BME280;65471;55.908;37.880;2023-02-26T04:24:11;97193.63;;;1.45;86.20
76590;BME280;65471;55.908;37.880;2023-02-26T04:26:38;97200.22;;;1.54;86.40
76590;BME280;65471;55.908;37.880;2023-02-26T04:29:05;97207.97;;;1.56;86.24
76590;BME280;65471;55.908;37.880;2023-02-26T04:31:32;97207.16;;;1.55;86.46
76590;BME280;65471;55.908;37.880;2023-02-26T04:33:59;97219.56;;;1.50;86.20
76590;BME280;65471;55.908;37.880;2023-02-26T04:36:26;97222.91;;;1.45;86.33
76590;BME280;65471;55.908;37.880;2023-02-26T04:38:53;97219.69;;;1.43;85.95
76590;BME280;65471;55.908;37.880;2023-02-26T04:41:20;97225.16;;;1.36;86.03
76590;BME280;65471;55.908;37.880;2023-02-26T04:43:47;97228.25;;;1.45;86.47
76590;BME280;65471;55.908;37.880;2023-02-26T04:46:14;97240.75;;;1.45;87.02
76590;BME280;65471;55.908;37.880;2023-02-26T04:48:41;97241.72;;;1.38;86.46
76590;BME280;65471;55.908;37.880;2023-02-26T04:51:07;97248.41;;;1.41;86.71
76590;BME280;65471;55.908;37.880;2023-02-26T04:53:34;97228.88;;;1.35;86.79
76590;BME280;65471;55.908;37.880;2023-02-26T04:56:01;97259.34;;;1.57;86.38
76590;BME280;65471;55.908;37.880;2023-02-26T04:58:28;97255.19;;;1.61;85.88
76590;BME280;65471;55.908;37.880;2023-02-26T05:00:56;97259.78;;;1.65;85.93
76590;BME280;65471;55.908;37.880;2023-02-26T05:03:23;97257.25;;;1.70;86.05
76590;BME280;65471;55.908;37.880;2023-02-26T05:05:50;97264.91;;;1.67;86.34
76590;BME280;65471;55.908;37.880;2023-02-26T05:08:17;97276.69;;;1.71;85.68
76590;BME280;65471;55.908;37.880;2023-02-26T05:10:44;97278.06;;;1.73;85.54
76590;BME280;65471;55.908;37.880;2023-02-26T05:13:11;97278.66;;;1.76;85.76
76590;BME280;65471;55.908;37.880;2023-02-26T05:15:37;97277.28;;;1.73;85.24
76590;BME280;65471;55.908;37.880;2023-02-26T05:18:04;97285.81;;;1.75;86.23
76590;BME280;65471;55.908;37.880;2023-02-26T05:20:31;97281.66;;;1.79;86.03
76590;BME280;65471;55.908;37.880;2023-02-26T05:22:58;97290.56;;;1.85;85.98
76590;BME280;65471;55.908;37.880;2023-02-26T05:25:25;97296.47;;;1.87;85.91
76590;BME280;65471;55.908;37.880;2023-02-26T05:27:51;97301.56;;;1.88;85.88
76590;BME280;65471;55.908;37.880;2023-02-26T05:30:18;97303.88;;;1.85;85.11
76590;BME280;65471;55.908;37.880;2023-02-26T05:32:45;97305.38;;;1.81;85.76
76590;BME280;65471;55.908;37.880;2023-02-26T05:35:12;97318.16;;;1.79;85.21
76590;BME280;65471;55.908;37.880;2023-02-26T05:37:40;97308.28;;;1.79;85.46
76590;BME280;65471;55.908;37.880;2023-02-26T05:40:08;97309.13;;;1.80;85.19
76590;BME280;65471;55.908;37.880;2023-02-26T05:42:38;97315.00;;;1.82;85.75
76590;BME280;65471;55.908;37.880;2023-02-26T05:45:06;97318.22;;;1.84;85.77
76590;BME280;65471;55.908;37.880;2023-02-26T05:47:33;97325.53;;;1.77;85.59
76590;BME280;65471;55.908;37.880;2023-02-26T05:50:01;97327.53;;;1.81;85.96
76590;BME280;65471;55.908;37.880;2023-02-26T05:52:29;97332.50;;;1.78;86.18
76590;BME280;65471;55.908;37.880;2023-02-26T05:54:56;97339.34;;;1.73;86.00
76590;BME280;65471;55.908;37.880;2023-02-26T05:57:23;97335.66;;;1.75;86.07
76590;BME280;65471;55.908;37.880;2023-02-26T05:59:50;97350.34;;;1.77;86.25
76590;BME280;65471;55.908;37.880;2023-02-26T06:02:17;97324.19;;;1.62;86.35
76590;BME280;65471;55.908;37.880;2023-02-26T06:04:44;97348.16;;;1.74;85.97
76590;BME280;65471;55.908;37.880;2023-02-26T06:07:10;97327.31;;;1.59;86.81
76590;BME280;65471;55.908;37.880;2023-02-26T06:09:37;97354.53;;;1.73;86.00
76590;BME280;65471;55.908;37.880;2023-02-26T06:12:04;97358.22;;;1.72;86.33
76590;BME280;65471;55.908;37.880;2023-02-26T06:14:32;97363.78;;;1.70;86.34
76590;BME280;65471;55.908;37.880;2023-02-26T06:16:59;97369.13;;;1.70;85.95
76590;BME280;65471;55.908;37.880;2023-02-26T06:19:26;97372.59;;;1.71;86.40
76590;BME280;65471;55.908;37.880;2023-02-26T06:21:53;97369.59;;;1.67;86.27
76590;BME280;65471;55.908;37.880;2023-02-26T06:24:20;97375.03;;;1.72;86.46
76590;BME280;65471;55.908;37.880;2023-02-26T06:26:46;97381.50;;;1.77;86.71
76590;BME280;65471;55.908;37.880;2023-02-26T06:29:14;97367.16;;;1.66;86.33
76590;BME280;65471;55.908;37.880;2023-02-26T06:31:44;97390.06;;;1.79;86.21
76590;BME280;65471;55.908;37.880;2023-02-26T06:34:14;97391.13;;;1.78;86.39
76590;BME280;65471;55.908;37.880;2023-02-26T06:36:41;97385.78;;;1.78;85.81
76590;BME280;65471;55.908;37.880;2023-02-26T06:39:08;97393.44;;;1.86;86.53
76590;BME280;65471;55.908;37.880;2023-02-26T06:41:34;97400.94;;;1.89;85.64
76590;BME280;65471;55.908;37.880;2023-02-26T06:44:02;97411.38;;;1.90;85.48
76590;BME280;65471;55.908;37.880;2023-02-26T06:46:29;97404.53;;;1.95;86.04
76590;BME280;65471;55.908;37.880;2023-02-26T06:48:56;97408.13;;;2.00;86.08
76590;BME280;65471;55.908;37.880;2023-02-26T06:51:23;97409.75;;;2.01;85.59
76590;BME280;65471;55.908;37.880;2023-02-26T06:53:50;97411.69;;;2.06;85.77
76590;BME280;65471;55.908;37.880;2023-02-26T06:56:17;97424.06;;;2.12;85.78
76590;BME280;65471;55.908;37.880;2023-02-26T06:58:43;97416.19;;;2.17;85.55
76590;BME280;65471;55.908;37.880;2023-02-26T07:01:10;97432.31;;;2.22;85.47
76590;BME280;65471;55.908;37.880;2023-02-26T07:03:37;97433.56;;;2.20;85.12
76590;BME280;65471;55.908;37.880;2023-02-26T07:06:05;97431.72;;;2.20;84.77
76590;BME280;65471;55.908;37.880;2023-02-26T07:08:53;97443.75;;;2.23;84.60
76590;BME280;65471;55.908;37.880;2023-02-26T07:11:19;97447.22;;;2.23;84.88
76590;BME280;65471;55.908;37.880;2023-02-26T07:13:46;97445.97;;;2.26;84.71
76590;BME280;65471;55.908;37.880;2023-02-26T07:16:13;97450.00;;;2.29;84.32
76590;BME280;65471;55.908;37.880;2023-02-26T07:18:40;97454.75;;;2.27;84.41
76590;BME280;65471;55.908;37.880;2023-02-26T07:21:07;97454.66;;;2.21;84.44
76590;BME280;65471;55.908;37.880;2023-02-26T07:23:34;97469.72;;;2.28;84.54
76590;BME280;65471;55.908;37.880;2023-02-26T07:26:01;97466.81;;;2.29;84.33
76590;BME280;65471;55.908;37.880;2023-02-26T07:28:28;97452.59;;;2.12;83.96
76590;BME280;65471;55.908;37.880;2023-02-26T07:30:55;97471.00;;;2.25;84.42
76590;BME280;65471;55.908;37.880;2023-02-26T07:33:23;97466.47;;;2.26;84.02
76590;BME280;65471;55.908;37.880;2023-02-26T07:35:50;97459.53;;;2.24;83.68
76590;BME280;65471;55.908;37.880;2023-02-26T07:38:17;97469.94;;;2.26;84.32
76590;BME280;65471;55.908;37.880;2023-02-26T07:40:45;97469.72;;;2.28;83.33
76590;BME280;65471;55.908;37.880;2023-02-26T07:43:12;97478.19;;;2.24;83.88
76590;BME280;65471;55.908;37.880;2023-02-26T07:45:39;97482.59;;;2.19;83.47
76590;BME280;65471;55.908;37.880;2023-02-26T07:48:06;97477.16;;;2.14;83.76
76590;BME280;65471;55.908;37.880;2023-02-26T07:50:33;97493.53;;;2.05;83.93
76590;BME280;65471;55.908;37.880;2023-02-26T07:53:00;97493.16;;;2.02;83.82
76590;BME280;65471;55.908;37.880;2023-02-26T07:55:27;97486.00;;;2.02;84.20
76590;BME280;65471;55.908;37.880;2023-02-26T07:57:53;97494.44;;;1.99;83.50
76590;BME280;65471;55.908;37.880;2023-02-26T08:00:20;97494.19;;;2.01;84.00
76590;BME280;65471;55.908;37.880;2023-02-26T08:02:47;97497.56;;;2.08;84.18
76590;BME280;65471;55.908;37.880;2023-02-26T08:05:14;97492.56;;;2.12;83.59
76590;BME280;65471;55.908;37.880;2023-02-26T08:07:41;97503.94;;;2.19;83.72
76590;BME280;65471;55.908;37.880;2023-02-26T08:10:09;97504.53;;;2.21;83.74
76590;BME280;65471;55.908;37.880;2023-02-26T08:12:36;97504.72;;;2.31;83.06
76590;BME280;65471;55.908;37.880;2023-02-26T08:15:04;97494.63;;;2.33;83.62
76590;BME280;65471;55.908;37.880;2023-02-26T08:17:31;97508.09;;;2.38;82.64
76590;BME280;65471;55.908;37.880;2023-02-26T08:19:58;97509.34;;;2.36;82.79
76590;BME280;65471;55.908;37.880;2023-02-26T08:22:24;97511.47;;;2.34;82.99
76590;BME280;65471;55.908;37.880;2023-02-26T08:24:52;97521.78;;;2.30;82.84
76590;BME280;65471;55.908;37.880;2023-02-26T08:27:19;97530.25;;;2.27;82.17
76590;BME280;65471;55.908;37.880;2023-02-26T08:29:46;97528.28;;;2.22;81.78
76590;BME280;65471;55.908;37.880;2023-02-26T08:32:16;97532.22;;;2.20;82.22
76590;BME280;65471;55.908;37.880;2023-02-26T08:34:45;97532.06;;;2.27;82.11
76590;BME280;65471;55.908;37.880;2023-02-26T08:37:12;97546.00;;;2.29;82.34
76590;BME280;65471;55.908;37.880;2023-02-26T08:39:39;97529.66;;;2.25;82.33
76590;BME280;65471;55.908;37.880;2023-02-26T08:42:07;97552.50;;;2.33;81.90
76590;BME280;65471;55.908;37.880;2023-02-26T08:44:34;97553.88;;;2.35;81.79
76590;BME280;65471;55.908;37.880;2023-02-26T08:47:02;97524.47;;;2.18;80.72
76590;BME280;65471;55.908;37.880;2023-02-26T08:49:29;97569.91;;;2.35;81.17
76590;BME280;65471;55.908;37.880;2023-02-26T08:51:56;97562.56;;;2.31;80.18
76590;BME280;65471;55.908;37.880;2023-02-26T08:54:23;97561.41;;;2.38;80.23
76590;BME280;65471;55.908;37.880;2023-02-26T08:56:50;97569.06;;;2.47;80.46
76590;BME280;65471;55.908;37.880;2023-02-26T08:59:19;97580.44;;;2.54;80.37
76590;BME280;65471;55.908;37.880;2023-02-26T09:01:45;97578.78;;;2.53;79.81
76590;BME280;65471;55.908;37.880;2023-02-26T09:04:12;97588.88;;;2.51;80.20
76590;BME280;65471;55.908;37.880;2023-02-26T09:06:39;97605.25;;;2.42;80.53
76590;BME280;65471;55.908;37.880;2023-02-26T09:09:06;97610.34;;;2.32;79.84
76590;BME280;65471;55.908;37.880;2023-02-26T09:11:33;97611.63;;;2.30;80.04
76590;BME280;65471;55.908;37.880;2023-02-26T09:14:03;97584.25;;;2.11;80.56
76590;BME280;65471;55.908;37.880;2023-02-26T09:16:30;97610.91;;;2.11;80.31
76590;BME280;65471;55.908;37.880;2023-02-26T09:18:57;97631.34;;;2.17;80.31
76590;BME280;65471;55.908;37.880;2023-02-26T09:21:24;97634.00;;;2.17;80.94
76590;BME280;65471;55.908;37.880;2023-02-26T09:23:51;97625.41;;;2.15;79.85
76590;BME280;65471;55.908;37.880;2023-02-26T09:26:18;97637.47;;;2.05;79.93
76590;BME280;65471;55.908;37.880;2023-02-26T09:28:44;97645.53;;;1.99;78.70
76590;BME280;65471;55.908;37.880;2023-02-26T09:31:11;97641.38;;;1.91;78.74
76590;BME280;65471;55.908;37.880;2023-02-26T09:33:38;97644.69;;;1.86;78.69
76590;BME280;65471;55.908;37.880;2023-02-26T09:36:06;97633.56;;;1.78;78.87
76590;BME280;65471;55.908;37.880;2023-02-26T09:38:33;97648.31;;;1.92;78.70
76590;BME280;65471;55.908;37.880;2023-02-26T09:41:05;97653.06;;;1.90;79.13
76590;BME280;65471;55.908;37.880;2023-02-26T09:54:49;97664.53;;;1.90;78.97
76590;BME280;65471;55.908;37.880;2023-02-26T09:59:56;97679.41;;;1.98;78.00
76590;BME280;65471;55.908;37.880;2023-02-26T10:02:35;97676.38;;;2.06;78.30
76590;BME280;65471;55.908;37.880;2023-02-26T10:05:29;97683.09;;;2.09;77.89
76590;BME280;65471;55.908;37.880;2023-02-26T10:08:01;97678.72;;;2.15;77.50
76590;BME280;65471;55.908;37.880;2023-02-26T10:12:59;97663.56;;;2.15;76.70
76590;BME280;65471;55.908;37.880;2023-02-26T10:15:39;97690.34;;;2.32;77.32
76590;BME280;65471;55.908;37.880;2023-02-26T10:18:22;97682.56;;;2.31;77.32
76590;BME280;65471;55.908;37.880;2023-02-26T10:21:08;97694.88;;;2.32;76.73
76590;BME280;65471;55.908;37.880;2023-02-26T10:23:53;97693.81;;;2.33;76.43
76590;BME280;65471;55.908;37.880;2023-02-26T10:26:24;97702.28;;;2.30;75.70
76590;BME280;65471;55.908;37.880;2023-02-26T10:34:39;97698.56;;;2.19;75.19
76590;BME280;65471;55.908;37.880;2023-02-26T10:37:12;97713.97;;;2.17;76.37
76590;BME280;65471;55.908;37.880;2023-02-26T10:40:03;97709.44;;;2.17;76.13
76590;BME280;65471;55.908;37.880;2023-02-26T10:42:43;97720.91;;;2.18;75.36
76590;BME280;65471;55.908;37.880;2023-02-26T10:45:36;97720.34;;;2.16;75.43
76590;BME280;65471;55.908;37.880;2023-02-26T10:48:27;97722.41;;;2.14;75.63
76590;BME280;65471;55.908;37.880;2023-02-26T10:51:00;97731.09;;;2.09;75.27
76590;BME280;65471;55.908;37.880;2023-02-26T10:53:31;97726.94;;;2.13;75.44
76590;BME280;65471;55.908;37.880;2023-02-26T10:56:11;97721.28;;;2.21;75.16
76590;BME280;65471;55.908;37.880;2023-02-26T10:58:39;97713.16;;;2.16;75.13
76590;BME280;65471;55.908;37.880;2023-02-26T11:01:17;97733.00;;;2.32;74.63
76590;BME280;65471;55.908;37.880;2023-02-26T11:03:46;97728.84;;;2.36;74.79
76590;BME280;65471;55.908;37.880;2023-02-26T11:06:21;97724.66;;;2.40;74.70
76590;BME280;65471;55.908;37.880;2023-02-26T11:08:52;97711.91;;;2.31;74.04
76590;BME280;65471;55.908;37.880;2023-02-26T11:14:19;97751.31;;;2.29;72.86
76590;BME280;65471;55.908;37.880;2023-02-26T11:16:59;97719.75;;;2.14;73.63
76590;BME280;65471;55.908;37.880;2023-02-26T11:19:33;97753.75;;;2.30;72.89
76590;BME280;65471;55.908;37.880;2023-02-26T11:22:02;97756.56;;;2.35;72.16
76590;BME280;65471;55.908;37.880;2023-02-26T11:24:35;97758.78;;;2.38;72.72
76590;BME280;65471;55.908;37.880;2023-02-26T11:27:07;97760.84;;;2.36;72.50
76590;BME280;65471;55.908;37.880;2023-02-26T11:29:41;97758.19;;;2.36;72.18
76590;BME280;65471;55.908;37.880;2023-02-26T11:32:20;97758.53;;;2.40;72.50
76590;BME280;65471;55.908;37.880;2023-02-26T11:34:49;97766.16;;;2.36;72.24
76590;BME280;65471;55.908;37.880;2023-02-26T11:37:22;97773.59;;;2.34;72.08
76590;BME280;65471;55.908;37.880;2023-02-26T11:42:52;97755.63;;;2.30;71.95
76590;BME280;65471;55.908;37.880;2023-02-26T11:45:20;97769.91;;;2.35;70.87
76590;BME280;65471;55.908;37.880;2023-02-26T11:47:50;97765.00;;;2.32;69.97
76590;BME280;65471;55.908;37.880;2023-02-26T11:50:20;97757.00;;;2.32;70.11
76590;BME280;65471;55.908;37.880;2023-02-26T11:53:14;97762.47;;;2.37;70.17
76590;BME280;65471;55.908;37.880;2023-02-26T11:55:44;97760.97;;;2.41;70.42
76590;BME280;65471;55.908;37.880;2023-02-26T11:58:20;97753.69;;;2.49;70.91
76590;BME280;65471;55.908;37.880;2023-02-26T12:00:50;97765.44;;;2.59;70.50
76590;BME280;65471;55.908;37.880;2023-02-26T12:03:25;97761.13;;;2.70;70.23
76590;BME280;65471;55.908;37.880;2023-02-26T12:05:56;97757.44;;;2.71;68.84
76590;BME280;65471;55.908;37.880;2023-02-26T12:08:35;97755.69;;;2.77;68.92
76590;BME280;65471;55.908;37.880;2023-02-26T12:31:09;97766.84;;;3.09;68.28
76590;BME280;65471;55.908;37.880;2023-02-26T12:37:04;97774.16;;;3.02;67.72
76590;BME280;65471;55.908;37.880;2023-02-26T12:59:46;97806.53;;;2.82;69.56
76590;BME280;65471;55.908;37.880;2023-02-26T13:15:47;97824.50;;;2.33;72.63
76590;BME280;65471;55.908;37.880;2023-02-26T13:18:33;97833.53;;;2.32;72.64
76590;BME280;65471;55.908;37.880;2023-02-26T13:21:05;97838.19;;;2.36;72.67
76590;BME280;65471;55.908;37.880;2023-02-26T13:23:43;97843.09;;;2.39;72.50
76590;BME280;65471;55.908;37.880;2023-02-26T13:26:15;97848.63;;;2.38;72.55
76590;BME280;65471;55.908;37.880;2023-02-26T13:28:53;97842.03;;;2.40;72.71
76590;BME280;65471;55.908;37.880;2023-02-26T13:31:34;97855.81;;;2.37;73.20
76590;BME280;65471;55.908;37.880;2023-02-26T13:34:16;97864.59;;;2.26;72.97
76590;BME280;65471;55.908;37.880;2023-02-26T13:36:44;97880.59;;;2.07;73.33
76590;BME280;65471;55.908;37.880;2023-02-26T13:43:00;97879.13;;;1.93;73.08
76590;BME280;65471;55.908;37.880;2023-02-26T13:48:08;97889.50;;;1.64;71.23
76590;BME280;65471;55.908;37.880;2023-02-26T13:59:46;97917.28;;;1.50;71.71
76590;BME280;65471;55.908;37.880;2023-02-26T14:02:00;97922.44;;;1.45;71.52
76590;BME280;65471;55.908;37.880;2023-02-26T14:04:57;97942.00;;;1.32;72.27
76590;BME280;65471;55.908;37.880;2023-02-26T14:08:38;97951.84;;;1.06;72.42
76590;BME280;65471;55.908;37.880;2023-02-26T14:13:40;97960.97;;;0.85;74.30
76590;BME280;65471;55.908;37.880;2023-02-26T14:24:14;97964.22;;;0.48;75.75
76590;BME280;65471;55.908;37.880;2023-02-26T14:26:48;97967.75;;;0.36;76.52
76590;BME280;65471;55.908;37.880;2023-02-26T14:29:21;97972.66;;;0.39;76.62
76590;BME280;65471;55.908;37.880;2023-02-26T14:34:22;97976.13;;;0.32;77.21
76590;BME280;65471;55.908;37.880;2023-02-26T14:36:53;97972.72;;;0.19;76.88
76590;BME280;65471;55.908;37.880;2023-02-26T14:39:35;97990.66;;;0.30;76.76
76590;BME280;65471;55.908;37.880;2023-02-26T14:47:45;98010.91;;;0.38;76.22
76590;BME280;65471;55.908;37.880;2023-02-26T14:50:22;98009.69;;;0.33;76.12
76590;BME280;65471;55.908;37.880;2023-02-26T15:12:25;98057.59;;;-0.20;69.20
76590;BME280;65471;55.908;37.880;2023-02-26T15:14:58;98069.63;;;-0.18;68.97
76590;BME280;65471;55.908;37.880;2023-02-26T15:25:43;98075.56;;;-0.36;70.43
76590;BME280;65471;55.908;37.880;2023-02-26T15:28:23;98085.38;;;-0.43;70.37
76590;BME280;65471;55.908;37.880;2023-02-26T15:30:52;98080.06;;;-0.49;71.13
76590;BME280;65471;55.908;37.880;2023-02-26T15:33:20;98089.03;;;-0.37;71.08
76590;BME280;65471;55.908;37.880;2023-02-26T15:35:48;98103.75;;;-0.35;71.43
76590;BME280;65471;55.908;37.880;2023-02-26T15:38:17;98100.06;;;-0.33;71.63
76590;BME280;65471;55.908;37.880;2023-02-26T15:40:45;98109.06;;;-0.28;71.72
76590;BME280;65471;55.908;37.880;2023-02-26T15:43:15;98109.69;;;-0.32;71.52
76590;BME280;65471;55.908;37.880;2023-02-26T15:45:45;98114.59;;;-0.43;72.22
76590;BME280;65471;55.908;37.880;2023-02-26T15:48:16;98122.94;;;-0.46;72.36
76590;BME280;65471;55.908;37.880;2023-02-26T15:50:47;98118.25;;;-0.44;72.18
76590;BME280;65471;55.908;37.880;2023-02-26T15:53:26;98127.03;;;-0.43;72.10
76590;BME280;65471;55.908;37.880;2023-02-26T15:55:55;98135.81;;;-0.49;71.61
76590;BME280;65471;55.908;37.880;2023-02-26T15:58:36;98137.81;;;-0.58;72.17
76590;BME280;65471;55.908;37.880;2023-02-26T16:01:05;98129.44;;;-0.62;72.75
76590;BME280;65471;55.908;37.880;2023-02-26T16:03:36;98130.44;;;-0.70;73.94
76590;BME280;65471;55.908;37.880;2023-02-26T16:06:05;98150.03;;;-0.71;75.03
76590;BME280;65471;55.908;37.880;2023-02-26T16:08:36;98151.47;;;-0.68;75.41
76590;BME280;65471;55.908;37.880;2023-02-26T16:11:04;98148.84;;;-0.61;75.21
76590;BME280;65471;55.908;37.880;2023-02-26T16:13:35;98149.84;;;-0.62;74.89
76590;BME280;65471;55.908;37.880;2023-02-26T16:16:23;98156.19;;;-0.63;75.59
76590;BME280;65471;55.908;37.880;2023-02-26T16:18:53;98150.06;;;-0.57;75.41
76590;BME280;65471;55.908;37.880;2023-02-26T16:21:34;98164.97;;;-0.56;75.61
76590;BME280;65471;55.908;37.880;2023-02-26T16:24:04;98146.59;;;-0.58;75.76
76590;BME280;65471;55.908;37.880;2023-02-26T16:26:40;98153.94;;;-0.66;76.94
76590;BME280;65471;55.908;37.880;2023-02-26T16:29:17;98167.19;;;-0.66;78.08
76590;BME280;65471;55.908;37.880;2023-02-26T16:31:49;98176.78;;;-0.72;79.21
76590;BME280;65471;55.908;37.880;2023-02-26T16:36:53;98163.63;;;-0.87;80.10
76590;BME280;65471;55.908;37.880;2023-02-26T16:39:28;98192.47;;;-0.77;80.24
76590;BME280;65471;55.908;37.880;2023-02-26T16:42:11;98190.22;;;-0.80;80.82
76590;BME280;65471;55.908;37.880;2023-02-26T16:47:30;98207.28;;;-0.96;81.77
76590;BME280;65471;55.908;37.880;2023-02-26T16:49:57;98211.94;;;-0.98;82.46
76590;BME280;65471;55.908;37.880;2023-02-26T16:52:25;98214.44;;;-0.97;82.49